LPA3412 UGTB-LTAC
Flight info
| Callsign | LPA3412 |
|---|---|
| Flight time | 1h 36m |
| Altitude | 36000 |
| Route | ZAGOT DCT NOLGA UN61 TBN UW71 ILHAN |
| Aircraft | A320/M-SDE3FGHIRWY/LB1 |
Departure
| Time | 2026-04-28 18:09 |
|---|---|
| Airport | Tbilisi International Airport (UGTB) |
Arrival
| Time | 2026-04-28 19:46 |
|---|---|
| Airport | Esenboğa International Airport (LTAC) |
| Time | Latitude | Longitude | Altitude | Speed | Heading |
|---|---|---|---|---|---|
| 2026-04-28 17:14 | 41.66981 | 44.96221 | 1526 ft | 0 kts | 43° |
| 2026-04-28 17:55 | 41.66974 | 44.96212 | 1526 ft | 2 kts | 43° |
| 2026-04-28 17:55 | 41.66962 | 44.96197 | 1524 ft | 2 kts | 41° |
| 2026-04-28 17:56 | 41.66950 | 44.96183 | 1523 ft | 2 kts | 38° |
| 2026-04-28 17:56 | 41.66937 | 44.96170 | 1522 ft | 2 kts | 32° |
| 2026-04-28 17:56 | 41.66922 | 44.96159 | 1520 ft | 2 kts | 11° |
| 2026-04-28 17:56 | 41.66907 | 44.96162 | 1526 ft | 2 kts | 311° |
| 2026-04-28 17:57 | 41.66902 | 44.96169 | 1526 ft | 0 kts | 306° |
| 2026-04-28 17:59 | 41.66903 | 44.96168 | 1526 ft | 2 kts | 306° |
| 2026-04-28 18:00 | 41.66942 | 44.96109 | 1521 ft | 12 kts | 314° |
| 2026-04-28 18:00 | 41.66996 | 44.96031 | 1526 ft | 11 kts | 312° |
| 2026-04-28 18:00 | 41.67042 | 44.95965 | 1521 ft | 9 kts | 314° |
| 2026-04-28 18:00 | 41.67080 | 44.95882 | 1522 ft | 11 kts | 307° |
| 2026-04-28 18:01 | 41.67133 | 44.95805 | 1524 ft | 11 kts | 313° |
| 2026-04-28 18:01 | 41.67189 | 44.95728 | 1524 ft | 15 kts | 315° |
| 2026-04-28 18:01 | 41.67276 | 44.95608 | 1526 ft | 16 kts | 313° |
| 2026-04-28 18:01 | 41.67350 | 44.95505 | 1525 ft | 15 kts | 314° |
| 2026-04-28 18:02 | 41.67415 | 44.95410 | 1525 ft | 15 kts | 311° |
| 2026-04-28 18:02 | 41.67497 | 44.95283 | 1525 ft | 19 kts | 311° |
| 2026-04-28 18:02 | 41.67570 | 44.95173 | 1524 ft | 12 kts | 313° |
| 2026-04-28 18:02 | 41.67616 | 44.95110 | 1526 ft | 7 kts | 314° |
| 2026-04-28 18:03 | 41.67647 | 44.95066 | 1522 ft | 7 kts | 311° |
| 2026-04-28 18:03 | 41.67661 | 44.94988 | 1526 ft | 9 kts | 261° |
| 2026-04-28 18:03 | 41.67639 | 44.94888 | 1522 ft | 14 kts | 253° |
| 2026-04-28 18:03 | 41.67611 | 44.94763 | 1521 ft | 14 kts | 252° |
| 2026-04-28 18:04 | 41.67583 | 44.94647 | 1525 ft | 12 kts | 252° |
| 2026-04-28 18:04 | 41.67553 | 44.94527 | 1520 ft | 11 kts | 251° |
| 2026-04-28 18:04 | 41.67549 | 44.94510 | 1525 ft | 0 kts | 251° |
| 2026-04-28 18:07 | 41.67537 | 44.94459 | 1520 ft | 12 kts | 252° |
| 2026-04-28 18:08 | 41.67497 | 44.94403 | 1522 ft | 7 kts | 195° |
| 2026-04-28 18:08 | 41.67461 | 44.94428 | 1523 ft | 4 kts | 135° |
| 2026-04-28 18:08 | 41.67457 | 44.94434 | 1525 ft | 5 kts | 135° |
| 2026-04-28 18:09 | 41.67281 | 44.94657 | 1525 ft | 76 kts | 136° |
| 2026-04-28 18:09 | 41.66707 | 44.95381 | 1525 ft | 148 kts | 136° |
| 2026-04-28 18:09 | 41.65865 | 44.96429 | 1971 ft | 168 kts | 137° |
| 2026-04-28 18:09 | 41.64987 | 44.97478 | 2844 ft | 170 kts | 139° |
| 2026-04-28 18:10 | 41.64085 | 44.98552 | 3617 ft | 183 kts | 138° |
| 2026-04-28 18:10 | 41.63092 | 44.99723 | 4113 ft | 198 kts | 140° |
| 2026-04-28 18:10 | 41.61795 | 45.00463 | 4367 ft | 217 kts | 179° |
| 2026-04-28 18:10 | 41.60346 | 44.99816 | 4697 ft | 237 kts | 220° |
| 2026-04-28 18:11 | 41.59378 | 44.97942 | 5092 ft | 258 kts | 248° |
| 2026-04-28 18:11 | 41.59010 | 44.95535 | 5699 ft | 271 kts | 262° |
| 2026-04-28 18:11 | 41.58798 | 44.93014 | 6482 ft | 276 kts | 263° |
| 2026-04-28 18:11 | 41.58603 | 44.90448 | 7295 ft | 279 kts | 264° |
| 2026-04-28 18:12 | 41.58413 | 44.87849 | 8073 ft | 283 kts | 264° |
| 2026-04-28 18:12 | 41.58222 | 44.85207 | 8830 ft | 288 kts | 264° |
| 2026-04-28 18:12 | 41.58026 | 44.82527 | 9594 ft | 292 kts | 264° |
| 2026-04-28 18:12 | 41.57829 | 44.79812 | 10345 ft | 297 kts | 264° |
| 2026-04-28 18:13 | 41.57619 | 44.76967 | 10613 ft | 319 kts | 264° |
| 2026-04-28 18:13 | 41.57392 | 44.73906 | 10791 ft | 343 kts | 264° |
| 2026-04-28 18:13 | 41.57147 | 44.70634 | 10927 ft | 365 kts | 264° |
| 2026-04-28 18:13 | 41.56893 | 44.67262 | 11390 ft | 374 kts | 264° |
| 2026-04-28 18:14 | 41.56630 | 44.63785 | 12023 ft | 378 kts | 264° |
| 2026-04-28 18:14 | 41.56363 | 44.60283 | 12673 ft | 381 kts | 264° |
| 2026-04-28 18:14 | 41.56093 | 44.56745 | 13329 ft | 384 kts | 264° |
| 2026-04-28 18:14 | 41.55820 | 44.53189 | 13959 ft | 387 kts | 264° |
| 2026-04-28 18:15 | 41.55545 | 44.49603 | 14574 ft | 390 kts | 264° |
| 2026-04-28 18:15 | 41.55267 | 44.45992 | 15171 ft | 392 kts | 264° |
| 2026-04-28 18:15 | 41.54985 | 44.42356 | 15764 ft | 395 kts | 263° |
| 2026-04-28 18:15 | 41.54701 | 44.38697 | 16335 ft | 398 kts | 263° |
| 2026-04-28 18:16 | 41.54410 | 44.34998 | 16892 ft | 401 kts | 263° |
| 2026-04-28 18:16 | 41.54116 | 44.31275 | 17438 ft | 404 kts | 263° |
| 2026-04-28 18:16 | 41.53818 | 44.27527 | 17977 ft | 407 kts | 263° |
| 2026-04-28 18:16 | 41.53518 | 44.23759 | 18493 ft | 410 kts | 263° |
| 2026-04-28 18:17 | 41.53215 | 44.19962 | 18993 ft | 412 kts | 263° |
| 2026-04-28 18:17 | 41.52911 | 44.16148 | 19490 ft | 414 kts | 263° |
| 2026-04-28 18:17 | 41.52602 | 44.12315 | 19974 ft | 416 kts | 263° |
| 2026-04-28 18:17 | 41.52291 | 44.08467 | 20432 ft | 418 kts | 263° |
| 2026-04-28 18:18 | 41.51978 | 44.04598 | 20879 ft | 420 kts | 263° |
| 2026-04-28 18:18 | 41.51664 | 44.00713 | 21304 ft | 421 kts | 263° |
| 2026-04-28 18:18 | 41.51352 | 43.96870 | 21699 ft | 423 kts | 262° |
| 2026-04-28 18:18 | 41.51135 | 43.94230 | 21970 ft | 424 kts | 262° |
| 2026-04-28 18:19 | 41.50700 | 43.88978 | 22467 ft | 427 kts | 262° |
| 2026-04-28 18:19 | 41.50372 | 43.85035 | 22839 ft | 428 kts | 262° |
| 2026-04-28 18:19 | 41.50041 | 43.81080 | 23204 ft | 430 kts | 262° |
| 2026-04-28 18:19 | 41.49714 | 43.77161 | 23552 ft | 431 kts | 262° |
| 2026-04-28 18:20 | 41.49381 | 43.73182 | 23894 ft | 433 kts | 262° |
| 2026-04-28 18:20 | 41.49046 | 43.69189 | 24233 ft | 434 kts | 262° |
| 2026-04-28 18:20 | 41.48707 | 43.65177 | 24549 ft | 436 kts | 262° |
| 2026-04-28 18:20 | 41.48364 | 43.61160 | 24867 ft | 437 kts | 262° |
| 2026-04-28 18:21 | 41.48021 | 43.57126 | 25161 ft | 438 kts | 262° |
| 2026-04-28 18:21 | 41.47680 | 43.53084 | 25441 ft | 439 kts | 262° |
| 2026-04-28 18:21 | 41.47336 | 43.49032 | 25724 ft | 440 kts | 261° |
| 2026-04-28 18:21 | 41.46987 | 43.44974 | 26000 ft | 441 kts | 261° |
| 2026-04-28 18:22 | 41.46633 | 43.40901 | 26283 ft | 442 kts | 261° |
| 2026-04-28 18:22 | 41.46277 | 43.36832 | 26531 ft | 443 kts | 261° |
| 2026-04-28 18:22 | 41.45917 | 43.32751 | 26743 ft | 444 kts | 261° |
| 2026-04-28 18:22 | 41.45553 | 43.28660 | 26983 ft | 445 kts | 261° |
| 2026-04-28 18:23 | 41.45189 | 43.24571 | 27273 ft | 443 kts | 261° |
| 2026-04-28 18:23 | 41.44827 | 43.20497 | 27573 ft | 442 kts | 261° |
| 2026-04-28 18:23 | 41.44469 | 43.16434 | 27877 ft | 440 kts | 261° |
| 2026-04-28 18:23 | 41.44113 | 43.12387 | 28183 ft | 439 kts | 261° |
| 2026-04-28 18:24 | 41.43756 | 43.08346 | 28494 ft | 438 kts | 261° |
| 2026-04-28 18:24 | 41.43634 | 43.06987 | 28596 ft | 437 kts | 261° |
| 2026-04-28 18:24 | 41.43029 | 43.00316 | 29112 ft | 436 kts | 260° |
| 2026-04-28 18:24 | 41.42653 | 42.96322 | 29419 ft | 434 kts | 260° |
| 2026-04-28 18:25 | 41.42220 | 42.92334 | 29615 ft | 433 kts | 258° |
| 2026-04-28 18:25 | 41.41748 | 42.88430 | 29941 ft | 431 kts | 258° |
| 2026-04-28 18:25 | 41.41246 | 42.84505 | 30279 ft | 429 kts | 258° |
| 2026-04-28 18:26 | 41.40236 | 42.76680 | 30828 ft | 428 kts | 258° |
| 2026-04-28 18:26 | 41.39744 | 42.72779 | 31128 ft | 427 kts | 258° |
| 2026-04-28 18:26 | 41.39260 | 42.68884 | 31420 ft | 426 kts | 258° |
| 2026-04-28 18:26 | 41.38783 | 42.64997 | 31690 ft | 425 kts | 258° |
| 2026-04-28 18:27 | 41.38309 | 42.61118 | 31962 ft | 424 kts | 258° |
| 2026-04-28 18:27 | 41.37835 | 42.57247 | 32216 ft | 423 kts | 258° |
| 2026-04-28 18:27 | 41.37361 | 42.53386 | 32488 ft | 422 kts | 258° |
| 2026-04-28 18:27 | 41.36882 | 42.49532 | 32755 ft | 422 kts | 258° |
| 2026-04-28 18:28 | 41.36398 | 42.45682 | 33029 ft | 421 kts | 258° |
| 2026-04-28 18:28 | 41.36076 | 42.43138 | 33205 ft | 420 kts | 258° |
| 2026-04-28 18:28 | 41.35592 | 42.39302 | 33452 ft | 419 kts | 258° |
| 2026-04-28 18:28 | 41.34951 | 42.34231 | 33783 ft | 418 kts | 258° |
| 2026-04-28 18:29 | 41.34464 | 42.30416 | 34041 ft | 418 kts | 258° |
| 2026-04-28 18:29 | 41.34134 | 42.27846 | 34208 ft | 417 kts | 258° |
| 2026-04-28 18:29 | 41.33491 | 42.22807 | 34517 ft | 417 kts | 258° |
| 2026-04-28 18:29 | 41.33008 | 42.19012 | 34746 ft | 416 kts | 258° |
| 2026-04-28 18:30 | 41.32687 | 42.16496 | 34889 ft | 416 kts | 258° |
| 2026-04-28 18:30 | 41.32359 | 42.13931 | 35032 ft | 416 kts | 258° |
| 2026-04-28 18:30 | 41.31713 | 42.08905 | 35290 ft | 416 kts | 257° |
| 2026-04-28 18:30 | 41.31225 | 42.05110 | 35507 ft | 416 kts | 257° |
| 2026-04-28 18:31 | 41.30735 | 42.01314 | 35713 ft | 416 kts | 257° |
| 2026-04-28 18:31 | 41.30243 | 41.97523 | 35929 ft | 415 kts | 257° |
| 2026-04-28 18:31 | 41.29751 | 41.93739 | 36095 ft | 416 kts | 257° |
| 2026-04-28 18:32 | 41.28754 | 41.86121 | 36158 ft | 420 kts | 257° |
| 2026-04-28 18:32 | 41.27742 | 41.78459 | 36156 ft | 421 kts | 257° |
| 2026-04-28 18:33 | 41.26724 | 41.70848 | 36164 ft | 422 kts | 257° |
| 2026-04-28 18:33 | 41.25690 | 41.63170 | 36165 ft | 421 kts | 257° |
| 2026-04-28 18:34 | 41.24666 | 41.55504 | 36162 ft | 421 kts | 257° |
| 2026-04-28 18:34 | 41.23636 | 41.47848 | 36160 ft | 421 kts | 257° |
| 2026-04-28 18:35 | 41.22596 | 41.40195 | 36159 ft | 421 kts | 257° |
| 2026-04-28 18:35 | 41.21552 | 41.32582 | 36166 ft | 422 kts | 257° |
| 2026-04-28 18:36 | 41.20495 | 41.24909 | 36170 ft | 422 kts | 257° |
| 2026-04-28 18:36 | 41.19440 | 41.17237 | 36170 ft | 422 kts | 257° |
| 2026-04-28 18:37 | 41.18381 | 41.09565 | 36170 ft | 422 kts | 257° |
| 2026-04-28 18:37 | 41.17312 | 41.01906 | 36165 ft | 422 kts | 257° |
| 2026-04-28 18:38 | 41.16236 | 40.94248 | 36166 ft | 422 kts | 257° |
| 2026-04-28 18:38 | 41.15160 | 40.86586 | 36168 ft | 423 kts | 257° |
| 2026-04-28 18:39 | 41.14079 | 40.78924 | 36171 ft | 423 kts | 257° |
| 2026-04-28 18:39 | 41.12988 | 40.71270 | 36169 ft | 422 kts | 257° |
| 2026-04-28 18:40 | 41.11896 | 40.63622 | 36169 ft | 422 kts | 256° |
| 2026-04-28 18:40 | 41.10798 | 40.55971 | 36169 ft | 422 kts | 256° |
| 2026-04-28 18:41 | 41.09699 | 40.48330 | 36169 ft | 423 kts | 256° |
| 2026-04-28 18:41 | 41.08591 | 40.40682 | 36171 ft | 422 kts | 256° |
| 2026-04-28 18:42 | 41.07474 | 40.33039 | 36170 ft | 422 kts | 256° |
| 2026-04-28 18:42 | 41.06356 | 40.25440 | 36172 ft | 423 kts | 256° |
| 2026-04-28 18:43 | 41.05221 | 40.17739 | 36172 ft | 423 kts | 256° |
| 2026-04-28 18:43 | 41.04095 | 40.10132 | 36170 ft | 424 kts | 256° |
| 2026-04-28 18:44 | 41.02960 | 40.02473 | 36175 ft | 424 kts | 256° |
| 2026-04-28 18:44 | 41.01245 | 39.90989 | 36173 ft | 424 kts | 256° |
| 2026-04-28 18:45 | 41.00096 | 39.83330 | 36172 ft | 424 kts | 257° |
| 2026-04-28 18:45 | 40.99921 | 39.75502 | 36167 ft | 431 kts | 274° |
| 2026-04-28 18:46 | 41.00697 | 39.67638 | 36167 ft | 431 kts | 274° |
| 2026-04-28 18:46 | 41.01440 | 39.59763 | 36166 ft | 431 kts | 274° |
| 2026-04-28 18:47 | 41.02184 | 39.51886 | 36167 ft | 431 kts | 274° |
| 2026-04-28 18:47 | 41.02926 | 39.44009 | 36169 ft | 431 kts | 274° |
| 2026-04-28 18:48 | 41.03665 | 39.36133 | 36166 ft | 431 kts | 274° |
| 2026-04-28 18:48 | 41.04392 | 39.28309 | 36166 ft | 431 kts | 274° |
| 2026-04-28 18:49 | 41.04999 | 39.21715 | 36165 ft | 430 kts | 274° |
| 2026-04-28 18:49 | 41.05831 | 39.12563 | 36166 ft | 431 kts | 274° |
| 2026-04-28 18:50 | 41.06559 | 39.04682 | 36165 ft | 431 kts | 274° |
| 2026-04-28 18:50 | 41.07292 | 38.96800 | 36171 ft | 431 kts | 274° |
| 2026-04-28 18:51 | 41.08013 | 38.88925 | 36170 ft | 431 kts | 274° |
| 2026-04-28 18:51 | 41.08723 | 38.81045 | 36173 ft | 430 kts | 274° |
| 2026-04-28 18:52 | 41.09427 | 38.73163 | 36174 ft | 430 kts | 274° |
| 2026-04-28 18:52 | 41.10125 | 38.65286 | 36174 ft | 430 kts | 274° |
| 2026-04-28 18:53 | 41.10811 | 38.57401 | 36177 ft | 430 kts | 274° |
| 2026-04-28 18:53 | 41.11476 | 38.49523 | 36178 ft | 430 kts | 273° |
| 2026-04-28 18:54 | 41.12121 | 38.41658 | 36171 ft | 429 kts | 273° |
| 2026-04-28 18:54 | 41.12759 | 38.33833 | 36172 ft | 429 kts | 273° |
| 2026-04-28 18:55 | 41.13300 | 38.27245 | 36172 ft | 429 kts | 273° |
| 2026-04-28 18:55 | 41.14055 | 38.18103 | 36172 ft | 429 kts | 273° |
| 2026-04-28 18:56 | 41.14694 | 38.10231 | 36171 ft | 428 kts | 273° |
| 2026-04-28 18:56 | 41.15327 | 38.02374 | 36169 ft | 428 kts | 273° |
| 2026-04-28 18:57 | 41.15963 | 37.94489 | 36131 ft | 431 kts | 274° |
| 2026-04-28 18:57 | 41.16593 | 37.86543 | 36129 ft | 434 kts | 274° |
| 2026-04-28 18:58 | 41.17264 | 37.78562 | 36137 ft | 436 kts | 274° |
| 2026-04-28 18:58 | 41.17954 | 37.70609 | 36141 ft | 437 kts | 274° |
| 2026-04-28 18:59 | 41.18635 | 37.62576 | 36146 ft | 438 kts | 274° |
| 2026-04-28 18:59 | 41.19164 | 37.54478 | 36149 ft | 438 kts | 271° |
| 2026-04-28 19:00 | 41.19648 | 37.46419 | 36155 ft | 438 kts | 272° |
| 2026-04-28 19:00 | 41.20241 | 37.38355 | 36157 ft | 439 kts | 273° |
| 2026-04-28 19:01 | 41.20860 | 37.30292 | 36164 ft | 439 kts | 273° |
| 2026-04-28 19:01 | 41.21464 | 37.22271 | 36165 ft | 439 kts | 273° |
| 2026-04-28 19:02 | 41.22080 | 37.14206 | 36168 ft | 439 kts | 274° |
| 2026-04-28 19:02 | 41.22714 | 37.06135 | 36168 ft | 439 kts | 274° |
| 2026-04-28 19:03 | 41.23339 | 36.98057 | 36171 ft | 440 kts | 273° |
| 2026-04-28 19:03 | 41.23946 | 36.89969 | 36176 ft | 439 kts | 273° |
| 2026-04-28 19:04 | 41.24558 | 36.81880 | 36175 ft | 440 kts | 274° |
| 2026-04-28 19:04 | 41.25167 | 36.73802 | 36176 ft | 439 kts | 273° |
| 2026-04-28 19:05 | 41.25754 | 36.65719 | 36177 ft | 440 kts | 273° |
| 2026-04-28 19:05 | 41.26230 | 36.57629 | 36179 ft | 438 kts | 267° |
| 2026-04-28 19:06 | 41.25465 | 36.51040 | 36176 ft | 434 kts | 251° |
| 2026-04-28 19:06 | 41.23045 | 36.42226 | 36177 ft | 435 kts | 249° |
| 2026-04-28 19:07 | 41.20957 | 36.34695 | 36179 ft | 434 kts | 249° |
| 2026-04-28 19:07 | 41.18919 | 36.27343 | 36174 ft | 434 kts | 249° |
| 2026-04-28 19:08 | 41.16823 | 36.19821 | 36172 ft | 435 kts | 249° |
| 2026-04-28 19:08 | 41.14713 | 36.12304 | 36166 ft | 434 kts | 249° |
| 2026-04-28 19:09 | 41.12619 | 36.04844 | 36157 ft | 435 kts | 249° |
| 2026-04-28 19:09 | 41.10505 | 35.97336 | 36147 ft | 435 kts | 249° |
| 2026-04-28 19:10 | 41.08380 | 35.89832 | 36126 ft | 435 kts | 249° |
| 2026-04-28 19:10 | 41.06195 | 35.82348 | 36117 ft | 436 kts | 248° |
| 2026-04-28 19:11 | 41.03979 | 35.74879 | 36110 ft | 436 kts | 248° |
| 2026-04-28 19:11 | 41.01763 | 35.67392 | 36099 ft | 436 kts | 249° |
| 2026-04-28 19:12 | 40.99604 | 35.59884 | 36090 ft | 436 kts | 249° |
| 2026-04-28 19:12 | 40.97471 | 35.52362 | 36084 ft | 436 kts | 249° |
| 2026-04-28 19:13 | 40.95325 | 35.44849 | 36080 ft | 436 kts | 249° |
| 2026-04-28 19:13 | 40.93167 | 35.37345 | 36073 ft | 436 kts | 249° |
| 2026-04-28 19:14 | 40.90999 | 35.29845 | 36071 ft | 437 kts | 249° |
| 2026-04-28 19:14 | 40.88826 | 35.22351 | 36072 ft | 437 kts | 249° |
| 2026-04-28 19:15 | 40.86646 | 35.14860 | 36073 ft | 437 kts | 249° |
| 2026-04-28 19:15 | 40.85198 | 35.09884 | 36072 ft | 438 kts | 249° |
| 2026-04-28 19:16 | 40.82285 | 34.99894 | 36074 ft | 438 kts | 249° |
| 2026-04-28 19:16 | 40.80093 | 34.92385 | 36074 ft | 438 kts | 249° |
| 2026-04-28 19:17 | 40.77890 | 34.84890 | 36066 ft | 438 kts | 249° |
| 2026-04-28 19:17 | 40.76056 | 34.78661 | 36067 ft | 438 kts | 249° |
| 2026-04-28 19:18 | 40.73472 | 34.69964 | 36069 ft | 438 kts | 249° |
| 2026-04-28 19:18 | 40.71591 | 34.63705 | 36072 ft | 439 kts | 248° |
| 2026-04-28 19:19 | 40.69339 | 34.56284 | 36075 ft | 439 kts | 248° |
| 2026-04-28 19:19 | 40.67072 | 34.48815 | 36077 ft | 439 kts | 248° |
| 2026-04-28 19:20 | 40.64792 | 34.41354 | 36078 ft | 439 kts | 248° |
| 2026-04-28 19:20 | 40.62512 | 34.33907 | 36076 ft | 438 kts | 248° |
| 2026-04-28 19:21 | 40.60241 | 34.26465 | 36067 ft | 434 kts | 248° |
| 2026-04-28 19:21 | 40.58013 | 34.19162 | 36063 ft | 428 kts | 248° |
| 2026-04-28 19:22 | 40.56163 | 34.13125 | 36066 ft | 427 kts | 248° |
| 2026-04-28 19:22 | 40.53574 | 34.04707 | 36065 ft | 427 kts | 248° |
| 2026-04-28 19:23 | 40.51336 | 33.97472 | 36065 ft | 427 kts | 248° |
| 2026-04-28 19:23 | 40.49203 | 33.90183 | 36059 ft | 427 kts | 251° |
| 2026-04-28 19:24 | 40.47372 | 33.82765 | 36058 ft | 427 kts | 253° |
| 2026-04-28 19:24 | 40.45563 | 33.75343 | 36065 ft | 427 kts | 248° |
| 2026-04-28 19:25 | 40.42430 | 33.68811 | 36065 ft | 429 kts | 228° |
| 2026-04-28 19:25 | 40.37833 | 33.63782 | 36059 ft | 432 kts | 219° |
| 2026-04-28 19:26 | 40.33051 | 33.58996 | 36056 ft | 432 kts | 219° |
| 2026-04-28 19:26 | 40.28280 | 33.54197 | 35825 ft | 434 kts | 219° |
| 2026-04-28 19:27 | 40.25876 | 33.51782 | 34894 ft | 433 kts | 219° |
| 2026-04-28 19:27 | 40.23490 | 33.49393 | 34103 ft | 432 kts | 219° |
| 2026-04-28 19:27 | 40.21095 | 33.47004 | 33207 ft | 434 kts | 219° |
| 2026-04-28 19:27 | 40.18685 | 33.44601 | 32300 ft | 436 kts | 219° |
| 2026-04-28 19:28 | 40.16334 | 33.42208 | 31326 ft | 430 kts | 221° |
| 2026-04-28 19:28 | 40.14049 | 33.39716 | 30377 ft | 429 kts | 223° |
| 2026-04-28 19:28 | 40.11790 | 33.37128 | 29344 ft | 433 kts | 224° |
| 2026-04-28 19:28 | 40.09536 | 33.34484 | 28237 ft | 438 kts | 224° |
| 2026-04-28 19:29 | 40.07261 | 33.31809 | 27088 ft | 443 kts | 224° |
| 2026-04-28 19:29 | 40.05741 | 33.30034 | 26310 ft | 441 kts | 223° |
| 2026-04-28 19:29 | 40.02700 | 33.26534 | 24754 ft | 433 kts | 223° |
| 2026-04-28 19:29 | 40.00355 | 33.24004 | 23598 ft | 441 kts | 220° |
| 2026-04-28 19:30 | 39.97894 | 33.21572 | 22598 ft | 443 kts | 218° |
| 2026-04-28 19:30 | 39.95403 | 33.19251 | 21753 ft | 437 kts | 217° |
| 2026-04-28 19:30 | 39.92916 | 33.16988 | 20924 ft | 435 kts | 216° |
| 2026-04-28 19:30 | 39.90442 | 33.14730 | 20094 ft | 434 kts | 217° |
| 2026-04-28 19:31 | 39.87988 | 33.12458 | 19279 ft | 431 kts | 217° |
| 2026-04-28 19:31 | 39.85562 | 33.10176 | 18488 ft | 429 kts | 217° |
| 2026-04-28 19:31 | 39.83164 | 33.07894 | 17945 ft | 420 kts | 218° |
| 2026-04-28 19:31 | 39.80902 | 33.05731 | 17759 ft | 389 kts | 218° |
| 2026-04-28 19:32 | 39.78803 | 33.03724 | 17631 ft | 360 kts | 218° |
| 2026-04-28 19:32 | 39.76854 | 33.01869 | 17499 ft | 336 kts | 218° |
| 2026-04-28 19:32 | 39.75024 | 33.00131 | 17372 ft | 315 kts | 218° |
| 2026-04-28 19:32 | 39.73298 | 32.98495 | 17109 ft | 300 kts | 218° |
| 2026-04-28 19:33 | 39.71633 | 32.96918 | 16855 ft | 294 kts | 218° |
| 2026-04-28 19:33 | 39.69990 | 32.95364 | 16607 ft | 291 kts | 218° |
| 2026-04-28 19:33 | 39.68358 | 32.93819 | 16376 ft | 289 kts | 218° |
| 2026-04-28 19:33 | 39.66735 | 32.92284 | 16113 ft | 289 kts | 218° |
| 2026-04-28 19:34 | 39.65107 | 32.90743 | 15864 ft | 288 kts | 218° |
| 2026-04-28 19:34 | 39.63548 | 32.89182 | 15614 ft | 285 kts | 227° |
| 2026-04-28 19:34 | 39.62493 | 32.87066 | 15361 ft | 279 kts | 253° |
| 2026-04-28 19:34 | 39.62262 | 32.84601 | 15112 ft | 276 kts | 277° |
| 2026-04-28 19:35 | 39.62868 | 32.82261 | 14858 ft | 276 kts | 302° |
| 2026-04-28 19:35 | 39.63974 | 32.80237 | 14611 ft | 274 kts | 305° |
| 2026-04-28 19:35 | 39.65295 | 32.78498 | 14354 ft | 272 kts | 328° |
| 2026-04-28 19:35 | 39.67076 | 32.77793 | 14096 ft | 271 kts | 358° |
| 2026-04-28 19:36 | 39.68909 | 32.78321 | 13734 ft | 276 kts | 27° |
| 2026-04-28 19:36 | 39.70515 | 32.79731 | 13317 ft | 280 kts | 34° |
| 2026-04-28 19:36 | 39.72075 | 32.81210 | 12934 ft | 279 kts | 34° |
| 2026-04-28 19:36 | 39.73636 | 32.82699 | 12610 ft | 275 kts | 34° |
| 2026-04-28 19:37 | 39.75180 | 32.84173 | 12279 ft | 275 kts | 34° |
| 2026-04-28 19:37 | 39.76196 | 32.85141 | 11975 ft | 272 kts | 34° |
| 2026-04-28 19:37 | 39.78238 | 32.87079 | 11283 ft | 270 kts | 34° |
| 2026-04-28 19:37 | 39.79748 | 32.88507 | 10795 ft | 266 kts | 34° |
| 2026-04-28 19:38 | 39.81234 | 32.89915 | 10379 ft | 262 kts | 35° |
| 2026-04-28 19:38 | 39.82702 | 32.91305 | 9939 ft | 259 kts | 35° |
| 2026-04-28 19:38 | 39.84156 | 32.92684 | 9540 ft | 258 kts | 35° |
| 2026-04-28 19:38 | 39.85614 | 32.94068 | 9125 ft | 260 kts | 35° |
| 2026-04-28 19:39 | 39.87057 | 32.95436 | 8718 ft | 254 kts | 35° |
| 2026-04-28 19:39 | 39.88458 | 32.96753 | 8523 ft | 239 kts | 32° |
| 2026-04-28 19:39 | 39.89910 | 32.97453 | 8472 ft | 217 kts | 2° |
| 2026-04-28 19:39 | 39.91301 | 32.97111 | 8326 ft | 198 kts | 334° |
| 2026-04-28 19:40 | 39.92316 | 32.95982 | 7979 ft | 189 kts | 307° |
| 2026-04-28 19:40 | 39.93068 | 32.94629 | 7675 ft | 180 kts | 307° |
| 2026-04-28 19:40 | 39.93787 | 32.93349 | 7445 ft | 170 kts | 307° |
| 2026-04-28 19:40 | 39.94475 | 32.92126 | 7168 ft | 164 kts | 307° |
| 2026-04-28 19:41 | 39.95138 | 32.90945 | 6916 ft | 159 kts | 307° |
| 2026-04-28 19:41 | 39.95786 | 32.89795 | 6677 ft | 156 kts | 307° |
| 2026-04-28 19:41 | 39.96443 | 32.88676 | 6438 ft | 155 kts | 315° |
| 2026-04-28 19:41 | 39.97355 | 32.88002 | 6209 ft | 152 kts | 348° |
| 2026-04-28 19:42 | 39.98393 | 32.88052 | 5988 ft | 151 kts | 19° |
| 2026-04-28 19:42 | 39.99286 | 32.88749 | 5784 ft | 150 kts | 36° |
| 2026-04-28 19:42 | 40.00130 | 32.89556 | 5559 ft | 150 kts | 36° |
| 2026-04-28 19:42 | 40.00688 | 32.90088 | 5403 ft | 150 kts | 36° |
| 2026-04-28 19:43 | 40.01809 | 32.91154 | 5104 ft | 148 kts | 36° |
| 2026-04-28 19:43 | 40.02643 | 32.91946 | 4895 ft | 148 kts | 36° |
| 2026-04-28 19:43 | 40.03477 | 32.92737 | 4701 ft | 148 kts | 37° |
| 2026-04-28 19:43 | 40.04307 | 32.93526 | 4504 ft | 147 kts | 37° |
| 2026-04-28 19:44 | 40.05123 | 32.94300 | 4316 ft | 146 kts | 37° |
| 2026-04-28 19:44 | 40.05946 | 32.95084 | 4115 ft | 146 kts | 37° |
| 2026-04-28 19:44 | 40.06766 | 32.95863 | 3923 ft | 146 kts | 37° |
| 2026-04-28 19:44 | 40.07584 | 32.96640 | 3730 ft | 145 kts | 37° |
| 2026-04-28 19:45 | 40.08397 | 32.97414 | 3535 ft | 145 kts | 37° |
| 2026-04-28 19:45 | 40.09209 | 32.98187 | 3348 ft | 144 kts | 37° |
| 2026-04-28 19:45 | 40.10019 | 32.98958 | 3152 ft | 144 kts | 36° |
| 2026-04-28 19:45 | 40.10759 | 32.99664 | 3116 ft | 100 kts | 36° |
| 2026-04-28 19:46 | 40.11077 | 32.99967 | 3125 ft | 13 kts | 36° |
| 2026-04-28 19:46 | 40.11177 | 33.00059 | 3127 ft | 49 kts | 34° |
| 2026-04-28 19:46 | 40.11446 | 33.00311 | 3134 ft | 28 kts | 36° |
| 2026-04-28 19:46 | 40.11505 | 33.00294 | 3135 ft | 10 kts | 311° |
| 2026-04-28 19:47 | 40.11540 | 33.00231 | 3134 ft | 0 kts | 305° |
| 2026-04-28 19:48 | 40.11546 | 33.00219 | 3134 ft | 3 kts | 306° |
| 2026-04-28 19:48 | 40.11558 | 33.00198 | 3134 ft | 4 kts | 306° |
| 2026-04-28 19:48 | 40.11583 | 33.00154 | 3134 ft | 6 kts | 307° |
| 2026-04-28 19:48 | 40.11627 | 33.00078 | 3130 ft | 16 kts | 307° |
| 2026-04-28 19:49 | 40.11708 | 32.99935 | 3122 ft | 22 kts | 305° |
| 2026-04-28 19:49 | 40.11789 | 32.99787 | 3113 ft | 16 kts | 305° |
| 2026-04-28 19:49 | 40.11789 | 32.99679 | 3113 ft | 11 kts | 257° |
| 2026-04-28 19:49 | 40.11783 | 32.99585 | 3113 ft | 9 kts | 253° |
| 2026-04-28 19:50 | 40.11718 | 32.99561 | 3113 ft | 0 kts | 175° |